Gotland Carolina — C6YV6 — position and weather

sailwx.info

Track history (hours):
 
Tides and Currents Weather Stations Pressure Air Temp Water Temp Dewpoint Dewpoint Depression Visibility Wind Speed Wind Dir Waves Ship Positions

Gotland Carolina

Last reported at 2018-Jun-28 02:48 UTC. Time now 2018-Jul-16 19:54 UTC.
Position N 28°38' W 094°25'.
Warning: this ship's position is 18 days out of date.

Length 183 m; draft 11.3 m.

Type: Ship. MMSI: 311046700.

Date/timePositionNaut miles runAvg speedWind from/ knotsBaromVisibWave heightAir tempDewpointWater temp
2018-Jun-28 02:48N 28°38' W 094°25'512.4
2018-Jun-28 02:22N 28°43' W 094°26'912.7
2018-Jun-28 01:40N 28°52' W 094°25'412.8
2018-Jun-28 01:23N 28°56' W 094°25'1012.8
2018-Jun-28 00:35N 29°06' W 094°26'312.4
2018-Jun-28 00:21N 29°09' W 094°27'512.7
2018-Jun-28 00:00N 29°12' W 094°30'712.2
2018-Jun-27 23:27N 29°17' W 094°35'511.5
2018-Jun-27 23:00N 29°20' W 094°40'612.0
2018-Jun-27 22:31N 29°21' W 094°47'611.7
2018-Jun-27 22:01N 29°26' W 094°50'510.9
2018-Jun-27 21:30N 29°31' W 094°53'510.5
2018-Jun-27 21:01N 29°35' W 094°56'510.2
2018-Jun-27 20:30N 29°40' W 094°59'4 7.8
2018-Jun-27 20:00N 29°43' W 095°01'3 6.8
2018-Jun-27 19:30N 29°45' W 095°04'3 5.3
2018-Jun-27 19:00N 29°44' W 095°07'3 5.4
2018-Jun-27 18:26N 29°45' W 095°10'2 5.2
2018-Jun-27 18:00N 29°44' W 095°13'1 0.2
2018-Jun-27 14:00N 29°43' W 095°14'0 0.0
2018-Jun-27 13:06N 29°43' W 095°14'0 0.0
2018-Jun-27 12:54N 29°43' W 095°14'0 0.0
2018-Jun-27 04:27N 29°43' W 095°14'0 0.0
2018-Jun-27 04:00N 29°43' W 095°14'0 0.0
2018-Jun-27 03:30N 29°43' W 095°14'0 0.0
2018-Jun-27 03:00N 29°43' W 095°14'0 0.0
2018-Jun-27 02:30N 29°43' W 095°14'0 0.0
2018-Jun-27 01:48N 29°43' W 095°14'0 0.0
2018-Jun-27 00:45N 29°43' W 095°14'0 0.0
2018-Jun-27 00:30N 29°43' W 095°14'0 0.0
2018-Jun-26 23:51N 29°43' W 095°14'0 0.0
2018-Jun-26 23:15N 29°43' W 095°14'0 0.0
2018-Jun-26 22:33N 29°43' W 095°14'0 0.0
2018-Jun-26 22:15N 29°43' W 095°14'0 0.0
2018-Jun-26 21:57N 29°43' W 095°14'0 0.0
2018-Jun-26 21:03N 29°43' W 095°14'0 0.0
2018-Jun-26 20:51N 29°43' W 095°14'0 0.0
2018-Jun-26 19:21N 29°43' W 095°14'0 0.0
2018-Jun-26 18:03N 29°43' W 095°14'0 0.0
2018-Jun-26 17:33N 29°43' W 095°14'0 0.0
2018-Jun-26 17:06N 29°43' W 095°14'0 0.0
2018-Jun-26 15:03N 29°43' W 095°14'0 0.0
2018-Jun-26 14:33N 29°43' W 095°14'0 0.0
2018-Jun-26 12:09N 29°43' W 095°14'0 0.0
2018-Jun-26 11:12N 29°43' W 095°14'0 0.0
2018-Jun-26 10:48N 29°43' W 095°14'0 0.0
2018-Jun-26 10:30N 29°43' W 095°14'0 0.0
2018-Jun-26 09:51N 29°43' W 095°14'0 0.0
2018-Jun-26 09:27N 29°43' W 095°14'0 0.0
2018-Jun-26 08:12N 29°43' W 095°14'0 0.0
2018-Jun-26 07:57N 29°43' W 095°14'0 0.0
2018-Jun-26 07:30N 29°43' W 095°14'0 0.0
2018-Jun-26 06:42N 29°43' W 095°14'0 0.0
2018-Jun-26 06:12N 29°43' W 095°14'0 0.0
2018-Jun-26 06:00N 29°43' W 095°14'0 0.0
2018-Jun-26 05:30N 29°43' W 095°14'0 0.0
2018-Jun-26 05:00N 29°43' W 095°14'0 0.0
2018-Jun-26 04:30N 29°43' W 095°14'0 0.0
2018-Jun-26 03:57N 29°43' W 095°14'0 0.0
2018-Jun-26 03:24N 29°43' W 095°14'0 0.0
2018-Jun-26 02:54N 29°43' W 095°14'0 0.0
2018-Jun-26 02:24N 29°43' W 095°14'0 0.0
2018-Jun-26 01:54N 29°43' W 095°14'0 0.0
2018-Jun-26 01:12N 29°43' W 095°14'0 0.0
2018-Jun-26 00:18N 29°43' W 095°14'0 0.0
2018-Jun-25 23:51N 29°43' W 095°14'0 0.0
2018-Jun-25 23:30N 29°43' W 095°14'0 0.0
2018-Jun-25 22:57N 29°43' W 095°14'0 0.0
2018-Jun-25 22:15N 29°43' W 095°14'0 0.0
2018-Jun-25 21:54N 29°43' W 095°14'0 0.0
2018-Jun-25 21:27N 29°43' W 095°14'0 0.0
2018-Jun-25 21:00N 29°43' W 095°14'0 0.0
2018-Jun-25 20:23N 29°43' W 095°14'0 0.2
2018-Jun-25 20:00N 29°44' W 095°14'1 1.9
2018-Jun-25 19:20N 29°44' W 095°12'4 5.1
2018-Jun-25 18:35N 29°44' W 095°08'1 6.1
2018-Jun-25 18:28N 29°44' W 095°07'3 6.2
2018-Jun-25 18:00N 29°45' W 095°04'4 8.3
2018-Jun-25 17:30N 29°42' W 095°01'510.8
2018-Jun-25 17:00N 29°38' W 094°58'612.6
2018-Jun-25 16:30N 29°32' W 094°54'713.0
2018-Jun-25 16:00N 29°27' W 094°50'613.0
2018-Jun-25 15:30N 29°21' W 094°47'713.2
2018-Jun-25 15:00N 29°20' W 094°40'4 8.0
2018-Jun-25 14:30N 29°18' W 094°36'2 0.1
2018-Jun-25 00:59N 29°18' W 094°33'0 0.0
2018-Jun-25 00:29N 29°18' W 094°33'0 0.0
2018-Jun-24 23:14N 29°18' W 094°34'0 0.0
2018-Jun-24 20:06N 29°18' W 094°34'  
Track history (hours):
 
Tides and Currents Weather Stations Pressure Air Temp Water Temp Dewpoint Dewpoint Depression Visibility Wind Speed Wind Dir Waves Ship Positions

Gotland Carolina

Last reported at 2018-Jun-28 02:48 UTC. Time now 2018-Jul-16 19:54 UTC.
Position N 28°38' W 094°25'.
Warning: this ship's position is 18 days out of date.

Length 183 m; draft 11.3 m.

Type: Ship. MMSI: 311046700.

Date/timePositionNaut miles runAvg speedWind from/ knotsBaromVisibWave heightAir tempDewpointWater temp
2018-Jun-28 02:48N 28°38' W 094°25'512.4
2018-Jun-28 02:22N 28°43' W 094°26'912.7
2018-Jun-28 01:40N 28°52' W 094°25'412.8
2018-Jun-28 01:23N 28°56' W 094°25'1012.8
2018-Jun-28 00:35N 29°06' W 094°26'312.4
2018-Jun-28 00:21N 29°09' W 094°27'512.7
2018-Jun-28 00:00N 29°12' W 094°30'712.2
2018-Jun-27 23:27N 29°17' W 094°35'511.5
2018-Jun-27 23:00N 29°20' W 094°40'612.0
2018-Jun-27 22:31N 29°21' W 094°47'611.7
2018-Jun-27 22:01N 29°26' W 094°50'510.9
2018-Jun-27 21:30N 29°31' W 094°53'510.5
2018-Jun-27 21:01N 29°35' W 094°56'510.2
2018-Jun-27 20:30N 29°40' W 094°59'4 7.8
2018-Jun-27 20:00N 29°43' W 095°01'3 6.8
2018-Jun-27 19:30N 29°45' W 095°04'3 5.3
2018-Jun-27 19:00N 29°44' W 095°07'3 5.4
2018-Jun-27 18:26N 29°45' W 095°10'2 5.2
2018-Jun-27 18:00N 29°44' W 095°13'1 0.2
2018-Jun-27 14:00N 29°43' W 095°14'0 0.0
2018-Jun-27 13:06N 29°43' W 095°14'0 0.0
2018-Jun-27 12:54N 29°43' W 095°14'0 0.0
2018-Jun-27 04:27N 29°43' W 095°14'0 0.0
2018-Jun-27 04:00N 29°43' W 095°14'0 0.0
2018-Jun-27 03:30N 29°43' W 095°14'0 0.0
2018-Jun-27 03:00N 29°43' W 095°14'0 0.0
2018-Jun-27 02:30N 29°43' W 095°14'0 0.0
2018-Jun-27 01:48N 29°43' W 095°14'0 0.0
2018-Jun-27 00:45N 29°43' W 095°14'0 0.0
2018-Jun-27 00:30N 29°43' W 095°14'0 0.0
2018-Jun-26 23:51N 29°43' W 095°14'0 0.0
2018-Jun-26 23:15N 29°43' W 095°14'0 0.0
2018-Jun-26 22:33N 29°43' W 095°14'0 0.0
2018-Jun-26 22:15N 29°43' W 095°14'0 0.0
2018-Jun-26 21:57N 29°43' W 095°14'0 0.0
2018-Jun-26 21:03N 29°43' W 095°14'0 0.0
2018-Jun-26 20:51N 29°43' W 095°14'0 0.0
2018-Jun-26 19:21N 29°43' W 095°14'0 0.0
2018-Jun-26 18:03N 29°43' W 095°14'0 0.0
2018-Jun-26 17:33N 29°43' W 095°14'0 0.0
2018-Jun-26 17:06N 29°43' W 095°14'0 0.0
2018-Jun-26 15:03N 29°43' W 095°14'0 0.0
2018-Jun-26 14:33N 29°43' W 095°14'0 0.0
2018-Jun-26 12:09N 29°43' W 095°14'0 0.0
2018-Jun-26 11:12N 29°43' W 095°14'0 0.0
2018-Jun-26 10:48N 29°43' W 095°14'0 0.0
2018-Jun-26 10:30N 29°43' W 095°14'0 0.0
2018-Jun-26 09:51N 29°43' W 095°14'0 0.0
2018-Jun-26 09:27N 29°43' W 095°14'0 0.0
2018-Jun-26 08:12N 29°43' W 095°14'0 0.0
2018-Jun-26 07:57N 29°43' W 095°14'0 0.0
2018-Jun-26 07:30N 29°43' W 095°14'0 0.0
2018-Jun-26 06:42N 29°43' W 095°14'0 0.0
2018-Jun-26 06:12N 29°43' W 095°14'0 0.0
2018-Jun-26 06:00N 29°43' W 095°14'0 0.0
2018-Jun-26 05:30N 29°43' W 095°14'0 0.0
2018-Jun-26 05:00N 29°43' W 095°14'0 0.0
2018-Jun-26 04:30N 29°43' W 095°14'0 0.0
2018-Jun-26 03:57N 29°43' W 095°14'0 0.0
2018-Jun-26 03:24N 29°43' W 095°14'0 0.0
2018-Jun-26 02:54N 29°43' W 095°14'0 0.0
2018-Jun-26 02:24N 29°43' W 095°14'0 0.0
2018-Jun-26 01:54N 29°43' W 095°14'0 0.0
2018-Jun-26 01:12N 29°43' W 095°14'0 0.0
2018-Jun-26 00:18N 29°43' W 095°14'0 0.0
2018-Jun-25 23:51N 29°43' W 095°14'0 0.0
2018-Jun-25 23:30N 29°43' W 095°14'0 0.0
2018-Jun-25 22:57N 29°43' W 095°14'0 0.0
2018-Jun-25 22:15N 29°43' W 095°14'0 0.0
2018-Jun-25 21:54N 29°43' W 095°14'0 0.0
2018-Jun-25 21:27N 29°43' W 095°14'0 0.0
2018-Jun-25 21:00N 29°43' W 095°14'0 0.0
2018-Jun-25 20:23N 29°43' W 095°14'0 0.2
2018-Jun-25 20:00N 29°44' W 095°14'1 1.9
2018-Jun-25 19:20N 29°44' W 095°12'4 5.1
2018-Jun-25 18:35N 29°44' W 095°08'1 6.1
2018-Jun-25 18:28N 29°44' W 095°07'3 6.2
2018-Jun-25 18:00N 29°45' W 095°04'4 8.3
2018-Jun-25 17:30N 29°42' W 095°01'510.8
2018-Jun-25 17:00N 29°38' W 094°58'612.6
2018-Jun-25 16:30N 29°32' W 094°54'713.0
2018-Jun-25 16:00N 29°27' W 094°50'613.0
2018-Jun-25 15:30N 29°21' W 094°47'713.2
2018-Jun-25 15:00N 29°20' W 094°40'4 8.0
2018-Jun-25 14:30N 29°18' W 094°36'2 0.1
2018-Jun-25 00:59N 29°18' W 094°33'0 0.0
2018-Jun-25 00:29N 29°18' W 094°33'0 0.0
2018-Jun-24 23:14N 29°18' W 094°34'0 0.0
2018-Jun-24 20:06N 29°18' W 094°34'  

Dump ship's entire track history